Wetterdaten: Woche 05.09.16 - 11.09.16 (KW36)
Datum Zeit Temp. A. Feuchte A. Luftdruck Regen Wind Richtung Taupunkt Windchill Windben
05.09.2016 00:00 22,5 C 62 % 1010,7 hPa 0,0 l/m 3,5 km/h N 14,6 C 22,4 C 17,3 km/h
05.09.2016 01:00 23,4 C 55 % 1010,7 hPa 0,0 l/m 8,8 km/h N 13,7 C 22,6 C 25,8 km/h
05.09.2016 02:00 20,8 C 69 % 1011,6 hPa 0,5 l/m 7,8 km/h N 14,8 C 20,3 C 23,3 km/h
05.09.2016 03:00 17,8 C 81 % 1012,0 hPa 1,6 l/m 5,3 km/h N 14,3 C 17,7 C 21,4 km/h
05.09.2016 04:00 17,6 C 80 % 1011,8 hPa 0,0 l/m 7,8 km/h N 14,1 C 16,7 C 25,3 km/h
05.09.2016 05:00 17,8 C 79 % 1011,5 hPa 0,3 l/m 7,1 km/h N 14,0 C 17,4 C 22,9 km/h
05.09.2016 06:00 17,1 C 79 % 1012,3 hPa 0,0 l/m 6,5 km/h N 13,5 C 16,7 C 22,9 km/h
05.09.2016 07:00 16,6 C 75 % 1012,6 hPa 0,0 l/m 8,6 km/h N 12,2 C 15,6 C 24,9 km/h
05.09.2016 08:00 16,5 C 75 % 1012,9 hPa 0,0 l/m 11,4 km/h N 12,0 C 14,2 C 28,2 km/h
05.09.2016 09:00 16,6 C 77 % 1013,1 hPa 0,0 l/m 13,3 km/h N 12,6 C 13,7 C 27,8 km/h
05.09.2016 10:00 17,6 C 76 % 1013,5 hPa 0,0 l/m 11,2 km/h N 13,4 C 15,6 C 25,4 km/h
05.09.2016 11:00 19,1 C 72 % 1013,6 hPa 0,3 l/m 12,8 km/h N 13,8 C 16,7 C 28,6 km/h
05.09.2016 12:00 19,1 C 72 % 1013,5 hPa 0,3 l/m 8,3 km/h N 13,9 C 18,3 C 25,3 km/h
05.09.2016 13:00 18,7 C 74 % 1013,7 hPa 0,3 l/m 9,0 km/h N 13,9 C 17,6 C 24,5 km/h
05.09.2016 14:00 18,7 C 75 % 1014,0 hPa 0,3 l/m 9,8 km/h N 14,2 C 17,3 C 25,3 km/h
05.09.2016 15:00 19,0 C 72 % 1014,0 hPa 0,0 l/m 11,3 km/h N 13,8 C 17,2 C 29,4 km/h
05.09.2016 16:00 19,3 C 70 % 1013,7 hPa 0,0 l/m 11,4 km/h N 13,6 C 17,4 C 28,2 km/h
05.09.2016 17:00 17,9 C 75 % 1014,5 hPa 1,0 l/m 11,5 km/h N 13,5 C 15,9 C 27,4 km/h
05.09.2016 18:00 16,1 C 80 % 1015,3 hPa 1,3 l/m 8,6 km/h N 12,6 C 15,0 C 24,9 km/h
05.09.2016 19:00 16,4 C 80 % 1015,2 hPa 0,0 l/m 6,4 km/h N 12,9 C 15,9 C 18,1 km/h
05.09.2016 20:00 16,6 C 79 % 1015,8 hPa 0,3 l/m 9,3 km/h N 13,0 C 15,2 C 24,1 km/h
05.09.2016 21:00 16,5 C 79 % 1016,4 hPa 0,0 l/m 6,5 km/h N 12,9 C 16,0 C 22,1 km/h
05.09.2016 22:00 15,9 C 81 % 1016,6 hPa 0,5 l/m 9,0 km/h N 12,7 C 14,6 C 24,1 km/h
05.09.2016 23:00 15,9 C 82 % 1016,9 hPa 0,0 l/m 9,3 km/h N 12,9 C 14,5 C 24,5 km/h
06.09.2016 00:00 15,9 C 82 % 1017,2 hPa 0,0 l/m 7,4 km/h N 12,8 C 15,4 C 21,3 km/h
06.09.2016 01:00 15,8 C 82 % 1017,5 hPa 0,0 l/m 7,4 km/h N 12,8 C 15,3 C 22,9 km/h
06.09.2016 02:00 15,8 C 82 % 1017,8 hPa 0,0 l/m 6,7 km/h N 12,7 C 15,4 C 20,9 km/h
06.09.2016 03:00 15,9 C 82 % 1017,9 hPa 0,0 l/m 7,8 km/h N 12,8 C 15,2 C 27,0 km/h
06.09.2016 04:00 15,9 C 82 % 1018,0 hPa 0,0 l/m 6,7 km/h N 12,7 C 15,7 C 20,5 km/h
06.09.2016 05:00 15,8 C 81 % 1018,1 hPa 0,0 l/m 8,0 km/h N 12,5 C 14,9 C 22,9 km/h
06.09.2016 06:00 15,5 C 80 % 1018,5 hPa 0,0 l/m 9,0 km/h N 12,0 C 14,2 C 24,9 km/h
06.09.2016 07:00 14,8 C 81 % 1019,0 hPa 1,6 l/m 9,1 km/h N 11,4 C 13,3 C 23,7 km/h
06.09.2016 08:00 13,6 C 82 % 1019,1 hPa 5,5 l/m 8,6 km/h N 10,6 C 12,3 C 26,6 km/h
06.09.2016 09:00 13,3 C 82 % 1019,3 hPa 4,4 l/m 11,6 km/h N 10,3 C 10,6 C 34,6 km/h
06.09.2016 10:00 13,4 C 82 % 1019,9 hPa 2,1 l/m 7,6 km/h N 10,3 C 12,5 C 23,7 km/h
06.09.2016 11:00 13,5 C 82 % 1020,5 hPa 1,0 l/m 8,7 km/h N 10,4 C 12,1 C 24,1 km/h
06.09.2016 12:00 13,6 C 82 % 1021,0 hPa 1,0 l/m 8,4 km/h N 10,6 C 12,4 C 19,7 km/h
06.09.2016 13:00 13,9 C 82 % 1021,4 hPa 0,3 l/m 6,3 km/h N 10,9 C 13,7 C 18,9 km/h
06.09.2016 14:00 14,4 C 82 % 1021,9 hPa 0,3 l/m 5,3 km/h N 11,4 C 14,4 C 14,5 km/h
06.09.2016 15:00 14,9 C 82 % 1022,1 hPa 0,0 l/m 5,6 km/h N 11,9 C 14,8 C 16,5 km/h
06.09.2016 16:00 15,8 C 82 % 1022,4 hPa 0,0 l/m 5,5 km/h N 12,7 C 15,7 C 17,3 km/h
06.09.2016 17:00 16,0 C 82 % 1022,8 hPa 0,0 l/m 6,1 km/h N 13,0 C 15,9 C 16,9 km/h
06.09.2016 18:00 16,1 C 82 % 1023,0 hPa 0,0 l/m 7,0 km/h N 13,0 C 15,6 C 19,7 km/h
06.09.2016 19:00 15,8 C 82 % 1023,6 hPa 0,0 l/m 3,1 km/h N 12,8 C 15,8 C 13,3 km/h
06.09.2016 20:00 15,8 C 82 % 1024,2 hPa 0,0 l/m 3,5 km/h N 12,7 C 15,8 C 12,1 km/h
06.09.2016 21:00 15,8 C 82 % 1024,6 hPa 0,0 l/m 2,8 km/h N 12,8 C 15,8 C 12,1 km/h
06.09.2016 22:00 15,9 C 82 % 1024,8 hPa 0,0 l/m 4,1 km/h N 12,8 C 15,9 C 13,7 km/h
06.09.2016 23:00 16,1 C 82 % 1025,1 hPa 0,0 l/m 3,7 km/h N 13,0 C 16,1 C 11,7 km/h
07.09.2016 00:00 16,3 C 82 % 1025,1 hPa 0,0 l/m 5,3 km/h N 13,2 C 16,2 C 14,5 km/h
07.09.2016 01:00 16,3 C 82 % 1025,1 hPa 0,0 l/m 3,6 km/h N 13,2 C 16,3 C 10,5 km/h
07.09.2016 02:00 16,1 C 82 % 1025,0 hPa 0,0 l/m 0,9 km/h N 13,0 C 16,1 C 7,2 km/h
07.09.2016 03:00 15,9 C 82 % 1024,9 hPa 0,0 l/m 0,8 km/h N 12,8 C 15,9 C 6,0 km/h
07.09.2016 04:00 15,3 C 82 % 1024,5 hPa 0,0 l/m 0,1 km/h N 12,3 C 15,3 C 2,8 km/h
07.09.2016 05:00 14,7 C 82 % 1024,3 hPa 0,0 l/m 0,0 km/h N 11,6 C 14,7 C 0,8 km/h
07.09.2016 06:00 13,8 C 82 % 1024,1 hPa 0,0 l/m 0,0 km/h N 10,9 C 13,8 C 0,4 km/h
07.09.2016 07:00 14,1 C 82 % 1024,4 hPa 0,0 l/m 0,0 km/h N 11,1 C 14,1 C 0,8 km/h
07.09.2016 08:00 15,6 C 82 % 1024,2 hPa 0,0 l/m 1,1 km/h N 12,6 C 15,6 C 7,7 km/h
07.09.2016 09:00 17,3 C 82 % 1024,0 hPa 0,0 l/m 1,7 km/h N 14,2 C 17,3 C 8,0 km/h
07.09.2016 10:00 18,8 C 81 % 1023,9 hPa 0,0 l/m 3,7 km/h N 15,3 C 18,8 C 13,7 km/h
07.09.2016 11:00 20,4 C 78 % 1023,5 hPa 0,0 l/m 1,1 km/h N 16,4 C 20,4 C 7,6 km/h
07.09.2016 12:00 22,0 C 74 % 1022,8 hPa 0,0 l/m 0,8 km/h N 17,0 C 22,0 C 7,2 km/h
07.09.2016 13:00 23,7 C 68 % 1022,3 hPa 0,0 l/m 0,4 km/h N 17,3 C 23,7 C 5,6 km/h
07.09.2016 14:00 24,3 C 64 % 1021,6 hPa 0,0 l/m 0,5 km/h N 16,9 C 24,3 C 4,8 km/h
07.09.2016 15:00 24,4 C 63 % 1020,9 hPa 0,0 l/m 0,3 km/h N 16,8 C 24,4 C 4,8 km/h
07.09.2016 16:00 24,4 C 64 % 1020,4 hPa 0,0 l/m 0,2 km/h N 17,1 C 24,4 C 3,6 km/h
07.09.2016 17:00 24,3 C 65 % 1020,2 hPa 0,0 l/m 0,2 km/h N 17,3 C 24,3 C 3,6 km/h
07.09.2016 18:00 23,9 C 68 % 1019,7 hPa 0,0 l/m 0,1 km/h N 17,6 C 23,9 C 1,6 km/h
07.09.2016 19:00 22,5 C 72 % 1019,6 hPa 0,0 l/m 0,0 km/h N 17,2 C 22,5 C 0,0 km/h
07.09.2016 20:00 20,3 C 79 % 1019,8 hPa 0,0 l/m 0,0 km/h N 16,4 C 20,3 C 0,4 km/h
07.09.2016 21:00 18,7 C 81 % 1019,6 hPa 0,0 l/m 0,0 km/h N 15,4 C 18,7 C 0,8 km/h
07.09.2016 22:00 17,9 C 82 % 1019,3 hPa 0,0 l/m 0,0 km/h N 14,8 C 17,9 C 1,6 km/h
07.09.2016 23:00 17,5 C 82 % 1019,0 hPa 0,0 l/m 0,0 km/h N 14,4 C 17,5 C 1,2 km/h
08.09.2016 00:00 16,8 C 82 % 1018,9 hPa 0,0 l/m 0,0 km/h N 13,7 C 16,8 C 0,0 km/h
08.09.2016 01:00 16,4 C 82 % 1018,5 hPa 0,0 l/m 0,0 km/h N 13,3 C 16,4 C 1,6 km/h
08.09.2016 02:00 16,0 C 82 % 1018,0 hPa 0,0 l/m 0,0 km/h N 12,9 C 16,0 C 0,4 km/h
08.09.2016 03:00 15,3 C 82 % 1017,7 hPa 0,0 l/m 0,0 km/h N 12,2 C 15,3 C 0,4 km/h
08.09.2016 04:00 14,5 C 82 % 1017,5 hPa 0,0 l/m 0,0 km/h N 11,5 C 14,5 C 0,0 km/h
08.09.2016 05:00 14,1 C 82 % 1017,3 hPa 0,0 l/m 0,0 km/h N 11,1 C 14,1 C 0,0 km/h
08.09.2016 06:00 13,6 C 83 % 1017,5 hPa 0,0 l/m 0,0 km/h N 10,7 C 13,6 C 0,0 km/h
08.09.2016 07:00 13,8 C 82 % 1017,6 hPa 0,0 l/m 0,0 km/h N 10,8 C 13,8 C 0,0 km/h
08.09.2016 08:00 15,5 C 82 % 1017,6 hPa 0,0 l/m 0,0 km/h N 12,3 C 15,5 C 0,0 km/h
08.09.2016 09:00 18,0 C 81 % 1017,4 hPa 0,0 l/m 0,1 km/h N 14,6 C 18,0 C 2,0 km/h
08.09.2016 10:00 20,9 C 80 % 1017,4 hPa 0,0 l/m 0,3 km/h N 17,3 C 20,9 C 4,0 km/h
08.09.2016 11:00 23,3 C 72 % 1017,1 hPa 0,0 l/m 0,4 km/h N 18,0 C 23,3 C 4,4 km/h
08.09.2016 12:00 25,7 C 65 % 1016,6 hPa 0,0 l/m 0,8 km/h N 18,6 C 25,7 C 6,4 km/h
08.09.2016 13:00 27,5 C 58 % 1016,1 hPa 0,0 l/m 0,8 km/h N 18,3 C 27,5 C 6,4 km/h
08.09.2016 14:00 27,4 C 53 % 1015,6 hPa 0,0 l/m 1,0 km/h N 16,8 C 27,4 C 8,1 km/h
08.09.2016 15:00 27,2 C 52 % 1014,9 hPa 0,0 l/m 0,8 km/h N 16,3 C 27,2 C 7,2 km/h
08.09.2016 16:00 26,8 C 54 % 1014,5 hPa 0,0 l/m 1,2 km/h N 16,7 C 26,8 C 7,2 km/h
08.09.2016 17:00 26,4 C 56 % 1014,2 hPa 0,0 l/m 1,6 km/h N 16,9 C 26,4 C 8,9 km/h
08.09.2016 18:00 25,7 C 58 % 1014,2 hPa 0,0 l/m 0,7 km/h N 16,8 C 25,7 C 5,2 km/h
08.09.2016 19:00 24,4 C 63 % 1014,0 hPa 0,0 l/m 0,0 km/h N 16,8 C 24,4 C 0,4 km/h
08.09.2016 20:00 21,6 C 72 % 1014,2 hPa 0,0 l/m 0,0 km/h N 16,3 C 21,6 C 0,0 km/h
08.09.2016 21:00 19,4 C 78 % 1014,5 hPa 0,0 l/m 0,0 km/h N 15,4 C 19,4 C 0,0 km/h
08.09.2016 22:00 18,1 C 80 % 1014,4 hPa 0,0 l/m 0,0 km/h N 14,7 C 18,1 C 0,0 km/h
08.09.2016 23:00 17,2 C 81 % 1014,3 hPa 0,0 l/m 0,0 km/h N 13,9 C 17,2 C 0,0 km/h
09.09.2016 00:00 16,5 C 82 % 1014,3 hPa 0,0 l/m 0,0 km/h N 13,3 C 16,5 C 0,0 km/h
09.09.2016 01:00 15,8 C 82 % 1014,3 hPa 0,0 l/m 0,0 km/h N 12,8 C 15,8 C 0,0 km/h
09.09.2016 02:00 15,1 C 82 % 1014,2 hPa 0,0 l/m 0,0 km/h N 12,1 C 15,1 C 0,0 km/h
09.09.2016 03:00 14,9 C 82 % 1014,1 hPa 0,0 l/m 0,0 km/h N 11,8 C 14,9 C 0,8 km/h
09.09.2016 04:00 14,6 C 82 % 1014,3 hPa 0,0 l/m 0,0 km/h N 11,6 C 14,6 C 0,8 km/h
09.09.2016 05:00 14,3 C 82 % 1014,7 hPa 0,0 l/m 0,0 km/h N 11,2 C 14,3 C 0,0 km/h
09.09.2016 06:00 13,8 C 82 % 1015,2 hPa 0,0 l/m 0,0 km/h N 10,8 C 13,8 C 0,0 km/h
09.09.2016 07:00 13,8 C 82 % 1015,7 hPa 0,0 l/m 0,0 km/h N 10,7 C 13,8 C 0,0 km/h
09.09.2016 08:00 15,3 C 82 % 1016,1 hPa 0,0 l/m 0,0 km/h N 12,2 C 15,3 C 0,0 km/h
09.09.2016 09:00 18,4 C 81 % 1016,4 hPa 0,0 l/m 0,0 km/h N 15,1 C 18,4 C 1,6 km/h
09.09.2016 10:00 23,5 C 70 % 1016,3 hPa 0,0 l/m 0,1 km/h N 17,5 C 23,5 C 2,8 km/h
09.09.2016 11:00 26,0 C 59 % 1016,2 hPa 0,0 l/m 0,3 km/h N 17,2 C 26,0 C 4,0 km/h
09.09.2016 12:00 27,1 C 56 % 1015,8 hPa 0,0 l/m 0,4 km/h N 17,5 C 27,1 C 4,4 km/h
09.09.2016 13:00 27,7 C 54 % 1015,5 hPa 0,0 l/m 0,3 km/h N 17,5 C 27,7 C 4,4 km/h
09.09.2016 14:00 27,8 C 52 % 1015,3 hPa 0,0 l/m 0,6 km/h N 17,1 C 27,8 C 4,8 km/h
09.09.2016 15:00 27,9 C 54 % 1014,9 hPa 0,0 l/m 0,2 km/h N 17,6 C 27,9 C 3,2 km/h
09.09.2016 16:00 27,8 C 53 % 1014,6 hPa 0,0 l/m 0,0 km/h N 17,3 C 27,8 C 2,0 km/h
09.09.2016 17:00 27,8 C 54 % 1014,6 hPa 0,0 l/m 0,1 km/h N 17,5 C 27,8 C 2,0 km/h
09.09.2016 18:00 27,3 C 55 % 1014,7 hPa 0,0 l/m 0,0 km/h N 17,4 C 27,3 C 2,4 km/h
09.09.2016 19:00 25,5 C 63 % 1015,0 hPa 0,0 l/m 0,0 km/h N 17,9 C 25,5 C 0,0 km/h
09.09.2016 20:00 22,6 C 74 % 1015,8 hPa 0,0 l/m 0,0 km/h N 17,8 C 22,6 C 0,8 km/h
09.09.2016 21:00 20,7 C 78 % 1016,0 hPa 0,0 l/m 0,0 km/h N 16,6 C 20,7 C 0,8 km/h
09.09.2016 22:00 19,8 C 80 % 1016,1 hPa 0,0 l/m 0,1 km/h N 16,3 C 19,8 C 2,4 km/h
09.09.2016 23:00 19,3 C 81 % 1016,2 hPa 0,0 l/m 0,1 km/h N 16,0 C 19,3 C 1,2 km/h
10.09.2016 00:00 18,5 C 81 % 1016,2 hPa 0,0 l/m 0,0 km/h N 15,2 C 18,5 C 0,0 km/h
10.09.2016 01:00 17,7 C 82 % 1016,0 hPa 0,0 l/m 0,0 km/h N 14,5 C 17,7 C 0,8 km/h
10.09.2016 02:00 17,0 C 82 % 1015,9 hPa 0,0 l/m 0,0 km/h N 13,9 C 17,0 C 0,0 km/h
10.09.2016 03:00 16,4 C 82 % 1016,0 hPa 0,0 l/m 0,0 km/h N 13,3 C 16,4 C 0,0 km/h
10.09.2016 04:00 15,8 C 82 % 1016,0 hPa 0,0 l/m 0,0 km/h N 12,8 C 15,8 C 0,0 km/h
10.09.2016 05:00 15,2 C 82 % 1016,1 hPa 0,0 l/m 0,0 km/h N 12,2 C 15,2 C 0,0 km/h
10.09.2016 06:00 14,8 C 82 % 1016,4 hPa 0,0 l/m 0,0 km/h N 11,8 C 14,8 C 0,0 km/h
10.09.2016 07:00 14,9 C 82 % 1016,6 hPa 0,0 l/m 0,0 km/h N 11,9 C 14,9 C 0,0 km/h
10.09.2016 08:00 16,5 C 81 % 1016,8 hPa 0,0 l/m 0,0 km/h N 13,3 C 16,5 C 0,0 km/h
10.09.2016 09:00 19,0 C 81 % 1017,0 hPa 0,0 l/m 0,0 km/h N 15,7 C 19,0 C 0,8 km/h
10.09.2016 10:00 23,5 C 74 % 1016,9 hPa 0,0 l/m 0,1 km/h N 18,5 C 23,5 C 2,8 km/h
10.09.2016 11:00 26,6 C 62 % 1016,5 hPa 0,0 l/m 0,2 km/h N 18,6 C 26,6 C 4,4 km/h
10.09.2016 12:00 27,9 C 57 % 1016,2 hPa 0,0 l/m 0,3 km/h N 18,7 C 27,9 C 4,4 km/h
10.09.2016 13:00 29,1 C 52 % 1015,7 hPa 0,0 l/m 1,0 km/h N 18,3 C 29,1 C 8,4 km/h
10.09.2016 14:00 29,3 C 50 % 1015,2 hPa 0,0 l/m 1,2 km/h N 17,6 C 29,3 C 8,1 km/h
10.09.2016 15:00 28,7 C 48 % 1014,9 hPa 0,0 l/m 1,1 km/h N 16,4 C 28,7 C 7,6 km/h
10.09.2016 16:00 28,1 C 46 % 1014,7 hPa 0,0 l/m 0,5 km/h N 15,2 C 28,1 C 6,4 km/h
10.09.2016 17:00 27,4 C 46 % 1014,6 hPa 0,0 l/m 0,4 km/h N 14,8 C 27,4 C 5,2 km/h
10.09.2016 18:00 26,7 C 48 % 1014,5 hPa 0,0 l/m 0,1 km/h N 14,7 C 26,7 C 2,8 km/h
10.09.2016 19:00 25,0 C 56 % 1014,7 hPa 0,0 l/m 0,0 km/h N 15,6 C 25,0 C 0,0 km/h
10.09.2016 20:00 21,7 C 66 % 1015,2 hPa 0,0 l/m 0,0 km/h N 15,1 C 21,7 C 0,0 km/h
10.09.2016 21:00 19,5 C 73 % 1015,4 hPa 0,0 l/m 0,0 km/h N 14,6 C 19,5 C 0,0 km/h
10.09.2016 22:00 18,3 C 77 % 1015,4 hPa 0,0 l/m 0,0 km/h N 14,2 C 18,3 C 0,0 km/h
10.09.2016 23:00 17,4 C 79 % 1015,4 hPa 0,0 l/m 0,0 km/h N 13,8 C 17,4 C 0,0 km/h
11.09.2016 00:00 17,0 C 81 % 1015,4 hPa 0,0 l/m 0,0 km/h N 13,7 C 17,0 C 1,6 km/h
11.09.2016 01:00 16,8 C 81 % 1015,4 hPa 0,0 l/m 0,0 km/h N 13,5 C 16,8 C 0,0 km/h
11.09.2016 02:00 16,4 C 82 % 1015,5 hPa 0,0 l/m 0,0 km/h N 13,3 C 16,4 C 0,0 km/h
11.09.2016 03:00 15,9 C 82 % 1015,6 hPa 0,0 l/m 0,0 km/h N 12,8 C 15,9 C 0,0 km/h
11.09.2016 04:00 15,4 C 82 % 1015,6 hPa 0,0 l/m 0,0 km/h N 12,4 C 15,4 C 0,0 km/h
11.09.2016 05:00 15,0 C 82 % 1015,9 hPa 0,0 l/m 0,0 km/h N 12,0 C 15,0 C 0,0 km/h
11.09.2016 06:00 14,9 C 82 % 1016,1 hPa 0,0 l/m 0,0 km/h N 11,8 C 14,9 C 0,0 km/h
11.09.2016 07:00 15,2 C 82 % 1016,7 hPa 0,0 l/m 0,0 km/h N 12,2 C 15,2 C 0,4 km/h
11.09.2016 08:00 16,6 C 82 % 1017,0 hPa 0,0 l/m 0,0 km/h N 13,4 C 16,6 C 0,4 km/h
11.09.2016 09:00 19,0 C 82 % 1017,3 hPa 0,0 l/m 0,0 km/h N 15,8 C 19,0 C 1,2 km/h
11.09.2016 10:00 23,9 C 69 % 1017,4 hPa 0,0 l/m 0,3 km/h N 17,7 C 23,9 C 4,8 km/h
11.09.2016 11:00 27,4 C 58 % 1017,3 hPa 0,0 l/m 0,4 km/h N 18,4 C 27,4 C 5,2 km/h
11.09.2016 12:00 28,8 C 54 % 1017,1 hPa 0,0 l/m 0,9 km/h N 18,6 C 28,8 C 7,2 km/h
11.09.2016 13:00 29,9 C 50 % 1016,9 hPa 0,0 l/m 0,9 km/h N 18,3 C 29,9 C 7,2 km/h
11.09.2016 14:00 30,0 C 48 % 1016,6 hPa 0,0 l/m 1,1 km/h N 17,8 C 30,0 C 6,4 km/h
11.09.2016 15:00 29,6 C 48 % 1016,4 hPa 0,0 l/m 0,5 km/h N 17,4 C 29,6 C 5,2 km/h
11.09.2016 16:00 29,4 C 46 % 1016,2 hPa 0,0 l/m 0,5 km/h N 16,6 C 29,4 C 5,6 km/h
11.09.2016 17:00 29,0 C 45 % 1016,3 hPa 0,0 l/m 0,5 km/h N 15,9 C 29,0 C 5,2 km/h
11.09.2016 18:00 28,3 C 47 % 1016,4 hPa 0,0 l/m 0,1 km/h N 15,9 C 28,3 C 2,0 km/h
11.09.2016 19:00 26,4 C 56 % 1016,7 hPa 0,0 l/m 0,0 km/h N 16,8 C 26,4 C 0,8 km/h
11.09.2016 20:00 23,0 C 67 % 1017,3 hPa 0,0 l/m 0,0 km/h N 16,5 C 23,0 C 0,0 km/h
11.09.2016 21:00 20,8 C 75 % 1017,7 hPa 0,0 l/m 0,0 km/h N 16,2 C 20,8 C 0,0 km/h
11.09.2016 22:00 19,6 C 78 % 1018,0 hPa 0,0 l/m 0,0 km/h N 15,7 C 19,6 C 0,4 km/h
11.09.2016 23:00 18,7 C 80 % 1017,9 hPa 0,0 l/m 0,0 km/h N 15,1 C 18,7 C 0,0 km/h
Min-Datum _ 06.09.16 10.09.16 05.09.16 - 07.09.16 - 06.09.16 06.09.16 07.09.16
_ Min-Zeit 09:45 16:45 00:45 - 04:00 - 09:00 09:15 04:15
Minimum _ 13,2 C 43 % 1010,5 hPa - 0,0 km/h - 10,3 C 9,1 C 0,0 km/h
Max-Datum _ 11.09.16 07.09.16 07.09.16 06.09.16 06.09.16 - 11.09.16 11.09.16 06.09.16
_ Max-Zeit 13:45 06:00 00:30 08:45 09:15 - 12:45 13:30 09:15
Maximum _ 30,2 C 83 % 1025,3 hPa 5,5 l/m 15,2 km/h
N
- 19,3 C 30,1 C 38,6 km/h
N
Durchschnitt _ 19,6 C 73 % 1017,2 hPa #22,6 l/m 2,5 km/h N 14,4 C 19,3 C 8,3 km/h